sensor_id;sensor_type;location;lat;lon;timestamp;noise_LAeq;noise_LA_min;noise_LA_max;noise_LA01;noise_LA95
67318;Laerm;57664;51.436;5.980;2023-04-28T00:00:00;34.12;33.35;34.97;;
67318;Laerm;57664;51.436;5.980;2023-04-28T00:00:13;34.12;33.04;34.96;;
67318;Laerm;57664;51.436;5.980;2023-04-28T00:00:24;34.09;32.97;35.02;;
67318;Laerm;57664;51.436;5.980;2023-04-28T00:00:42;34.12;33.18;35.05;;
67318;Laerm;57664;51.436;5.980;2023-04-28T00:00:52;34.15;33.20;34.98;;
67318;Laerm;57664;51.436;5.980;2023-04-28T00:01:04;34.15;33.28;35.02;;
67318;Laerm;57664;51.436;5.980;2023-04-28T00:01:14;34.22;33.32;35.33;;
67318;Laerm;57664;51.436;5.980;2023-04-28T00:01:25;34.19;33.33;35.13;;
67318;Laerm;57664;51.436;5.980;2023-04-28T00:01:35;34.20;32.58;35.21;;
67318;Laerm;57664;51.436;5.980;2023-04-28T00:01:45;34.18;33.31;34.95;;
67318;Laerm;57664;51.436;5.980;2023-04-28T00:02:03;34.22;33.28;35.15;;
67318;Laerm;57664;51.436;5.980;2023-04-28T00:02:14;34.21;33.14;35.13;;
67318;Laerm;57664;51.436;5.980;2023-04-28T00:02:24;34.23;33.12;35.19;;
67318;Laerm;57664;51.436;5.980;2023-04-28T00:02:36;34.22;33.36;35.09;;
67318;Laerm;57664;51.436;5.980;2023-04-28T00:02:48;34.30;33.43;35.14;;
67318;Laerm;57664;51.436;5.980;2023-04-28T00:02:58;34.26;33.01;35.46;;
67318;Laerm;57664;51.436;5.980;2023-04-28T00:03:09;34.35;33.48;35.24;;
67318;Laerm;57664;51.436;5.980;2023-04-28T00:03:19;34.35;33.30;35.18;;
67318;Laerm;57664;51.436;5.980;2023-04-28T00:03:29;34.28;33.41;35.51;;
67318;Laerm;57664;51.436;5.980;2023-04-28T00:03:40;34.36;33.40;35.10;;
67318;Laerm;57664;51.436;5.980;2023-04-28T00:03:50;34.31;33.16;35.16;;
67318;Laerm;57664;51.436;5.980;2023-04-28T00:04:00;34.29;33.20;35.08;;
67318;Laerm;57664;51.436;5.980;2023-04-28T00:04:11;34.32;32.92;35.18;;
67318;Laerm;57664;51.436;5.980;2023-04-28T00:04:21;34.28;33.39;35.21;;
67318;Laerm;57664;51.436;5.980;2023-04-28T00:04:31;34.32;33.42;35.25;;
67318;Laerm;57664;51.436;5.980;2023-04-28T00:04:42;34.37;33.51;35.36;;
67318;Laerm;57664;51.436;5.980;2023-04-28T00:04:55;34.42;33.50;35.29;;
67318;Laerm;57664;51.436;5.980;2023-04-28T00:05:05;34.43;33.56;35.45;;
67318;Laerm;57664;51.436;5.980;2023-04-28T00:05:15;34.45;33.60;35.38;;
67318;Laerm;57664;51.436;5.980;2023-04-28T00:05:26;34.46;33.43;35.54;;
67318;Laerm;57664;51.436;5.980;2023-04-28T00:05:36;34.41;33.41;35.25;;
67318;Laerm;57664;51.436;5.980;2023-04-28T00:05:46;34.45;33.60;35.40;;
67318;Laerm;57664;51.436;5.980;2023-04-28T00:05:58;34.50;33.56;35.41;;
67318;Laerm;57664;51.436;5.980;2023-04-28T00:06:08;34.47;33.26;35.25;;
67318;Laerm;57664;51.436;5.980;2023-04-28T00:06:23;34.47;33.40;35.41;;
67318;Laerm;57664;51.436;5.980;2023-04-28T00:06:34;34.49;33.49;35.56;;
67318;Laerm;57664;51.436;5.980;2023-04-28T00:06:44;34.48;33.62;35.26;;
67318;Laerm;57664;51.436;5.980;2023-04-28T00:06:58;34.46;33.43;35.34;;
67318;Laerm;57664;51.436;5.980;2023-04-28T00:07:08;34.47;33.44;35.23;;
67318;Laerm;57664;51.436;5.980;2023-04-28T00:07:18;34.51;33.56;35.31;;
67318;Laerm;57664;51.436;5.980;2023-04-28T00:07:29;34.53;33.64;35.48;;
67318;Laerm;57664;51.436;5.980;2023-04-28T00:07:39;34.48;33.50;35.32;;
67318;Laerm;57664;51.436;5.980;2023-04-28T00:07:50;34.51;33.63;35.49;;
67318;Laerm;57664;51.436;5.980;2023-04-28T00:08:00;34.50;33.63;35.54;;
67318;Laerm;57664;51.436;5.980;2023-04-28T00:08:15;34.55;33.51;35.47;;
67318;Laerm;57664;51.436;5.980;2023-04-28T00:08:26;34.60;33.69;35.50;;
67318;Laerm;57664;51.436;5.980;2023-04-28T00:08:36;34.53;33.58;35.49;;
67318;Laerm;57664;51.436;5.980;2023-04-28T00:08:46;34.57;33.45;35.39;;
67318;Laerm;57664;51.436;5.980;2023-04-28T00:08:56;34.58;33.56;35.51;;
67318;Laerm;57664;51.436;5.980;2023-04-28T00:09:07;34.70;33.71;35.56;;
67318;Laerm;57664;51.436;5.980;2023-04-28T00:09:20;34.74;33.85;35.78;;
67318;Laerm;57664;51.436;5.980;2023-04-28T00:09:30;34.82;33.88;35.87;;
67318;Laerm;57664;51.436;5.980;2023-04-28T00:09:40;34.81;33.89;35.71;;
67318;Laerm;57664;51.436;5.980;2023-04-28T00:09:51;34.78;33.92;35.49;;
67318;Laerm;57664;51.436;5.980;2023-04-28T00:10:01;34.83;33.81;35.67;;
67318;Laerm;57664;51.436;5.980;2023-04-28T00:10:11;34.84;33.87;35.78;;
67318;Laerm;57664;51.436;5.980;2023-04-28T00:10:21;34.90;34.04;35.84;;
67318;Laerm;57664;51.436;5.980;2023-04-28T00:10:34;34.91;34.02;35.83;;
67318;Laerm;57664;51.436;5.980;2023-04-28T00:10:44;34.97;33.74;35.80;;
67318;Laerm;57664;51.436;5.980;2023-04-28T00:10:54;34.99;34.10;35.72;;
67318;Laerm;57664;51.436;5.980;2023-04-28T00:11:08;35.01;34.05;35.99;;
67318;Laerm;57664;51.436;5.980;2023-04-28T00:11:18;34.99;34.09;35.97;;
67318;Laerm;57664;51.436;5.980;2023-04-28T00:11:28;35.05;34.19;36.09;;
67318;Laerm;57664;51.436;5.980;2023-04-28T00:11:39;35.04;33.83;35.78;;
67318;Laerm;57664;51.436;5.980;2023-04-28T00:12:04;35.08;34.18;36.42;;
67318;Laerm;57664;51.436;5.980;2023-04-28T00:12:15;35.07;34.21;35.93;;
67318;Laerm;57664;51.436;5.980;2023-04-28T00:12:28;35.06;33.92;36.07;;
67318;Laerm;57664;51.436;5.980;2023-04-28T00:12:39;35.07;34.15;36.37;;
67318;Laerm;57664;51.436;5.980;2023-04-28T00:12:49;35.13;34.22;36.39;;
67318;Laerm;57664;51.436;5.980;2023-04-28T00:13:00;35.06;34.09;36.06;;
67318;Laerm;57664;51.436;5.980;2023-04-28T00:13:10;35.10;34.29;36.00;;
67318;Laerm;57664;51.436;5.980;2023-04-28T00:13:20;35.07;34.00;35.83;;
67318;Laerm;57664;51.436;5.980;2023-04-28T00:13:30;35.09;34.21;35.98;;
67318;Laerm;57664;51.436;5.980;2023-04-28T00:13:41;35.08;34.11;35.88;;
67318;Laerm;57664;51.436;5.980;2023-04-28T00:13:51;35.08;34.14;35.93;;
67318;Laerm;57664;51.436;5.980;2023-04-28T00:14:01;35.05;34.03;35.98;;
67318;Laerm;57664;51.436;5.980;2023-04-28T00:14:14;35.06;33.91;35.95;;
67318;Laerm;57664;51.436;5.980;2023-04-28T00:14:24;35.04;34.08;36.47;;
67318;Laerm;57664;51.436;5.980;2023-04-28T00:14:35;35.04;34.04;36.10;;
67318;Laerm;57664;51.436;5.980;2023-04-28T00:14:45;35.06;34.27;36.10;;
67318;Laerm;57664;51.436;5.980;2023-04-28T00:14:55;35.01;33.95;36.01;;
67318;Laerm;57664;51.436;5.980;2023-04-28T00:15:06;35.05;34.04;35.94;;
67318;Laerm;57664;51.436;5.980;2023-04-28T00:15:16;35.03;33.88;35.97;;
67318;Laerm;57664;51.436;5.980;2023-04-28T00:15:26;35.03;34.06;36.07;;
67318;Laerm;57664;51.436;5.980;2023-04-28T00:15:37;35.06;34.26;35.97;;
67318;Laerm;57664;51.436;5.980;2023-04-28T00:15:48;35.04;33.97;35.98;;
67318;Laerm;57664;51.436;5.980;2023-04-28T00:15:58;35.08;33.85;35.91;;
67318;Laerm;57664;51.436;5.980;2023-04-28T00:16:09;35.10;34.09;36.15;;
67318;Laerm;57664;51.436;5.980;2023-04-28T00:16:19;35.13;34.12;36.10;;
67318;Laerm;57664;51.436;5.980;2023-04-28T00:16:30;35.11;34.20;36.40;;
67318;Laerm;57664;51.436;5.980;2023-04-28T00:16:40;35.09;34.18;36.06;;
67318;Laerm;57664;51.436;5.980;2023-04-28T00:16:50;35.16;34.35;35.95;;
67318;Laerm;57664;51.436;5.980;2023-04-28T00:17:01;35.13;34.05;36.19;;
67318;Laerm;57664;51.436;5.980;2023-04-28T00:17:12;35.12;34.08;35.88;;
67318;Laerm;57664;51.436;5.980;2023-04-28T00:17:22;35.14;34.16;36.18;;
67318;Laerm;57664;51.436;5.980;2023-04-28T00:17:32;35.13;34.09;35.98;;
67318;Laerm;57664;51.436;5.980;2023-04-28T00:17:43;35.14;34.27;36.04;;
67318;Laerm;57664;51.436;5.980;2023-04-28T00:17:53;35.16;34.38;36.30;;
67318;Laerm;57664;51.436;5.980;2023-04-28T00:18:04;35.16;34.35;36.03;;
67318;Laerm;57664;51.436;5.980;2023-04-28T00:18:14;35.19;34.27;35.95;;
67318;Laerm;57664;51.436;5.980;2023-04-28T00:18:25;35.22;34.12;35.91;;
67318;Laerm;57664;51.436;5.980;2023-04-28T00:18:36;35.18;34.24;36.09;;
67318;Laerm;57664;51.436;5.980;2023-04-28T00:18:46;35.19;34.31;36.07;;
67318;Laerm;57664;51.436;5.980;2023-04-28T00:18:56;35.18;34.40;36.03;;
67318;Laerm;57664;51.436;5.980;2023-04-28T00:19:07;35.22;34.40;36.10;;
67318;Laerm;57664;51.436;5.980;2023-04-28T00:19:17;35.22;34.23;36.07;;
67318;Laerm;57664;51.436;5.980;2023-04-28T00:19:28;35.25;34.34;36.21;;
67318;Laerm;57664;51.436;5.980;2023-04-28T00:19:38;35.26;34.42;36.09;;
67318;Laerm;57664;51.436;5.980;2023-04-28T00:19:49;35.24;34.19;36.09;;
67318;Laerm;57664;51.436;5.980;2023-04-28T00:20:00;35.26;34.44;36.08;;
67318;Laerm;57664;51.436;5.980;2023-04-28T00:20:11;35.25;34.46;36.05;;
67318;Laerm;57664;51.436;5.980;2023-04-28T00:20:21;35.33;34.48;36.29;;
67318;Laerm;57664;51.436;5.980;2023-04-28T00:20:31;35.29;34.38;36.38;;
67318;Laerm;57664;51.436;5.980;2023-04-28T00:20:42;35.27;34.35;36.33;;
67318;Laerm;57664;51.436;5.980;2023-04-28T00:20:52;35.28;34.48;36.07;;
67318;Laerm;57664;51.436;5.980;2023-04-28T00:21:02;35.21;34.29;36.05;;
67318;Laerm;57664;51.436;5.980;2023-04-28T00:21:13;35.27;34.16;36.01;;
67318;Laerm;57664;51.436;5.980;2023-04-28T00:21:23;35.27;34.39;36.04;;
67318;Laerm;57664;51.436;5.980;2023-04-28T00:21:36;35.25;34.42;36.04;;
67318;Laerm;57664;51.436;5.980;2023-04-28T00:21:46;35.29;34.34;36.17;;
67318;Laerm;57664;51.436;5.980;2023-04-28T00:21:56;38.68;34.52;60.65;;
67318;Laerm;57664;51.436;5.980;2023-04-28T00:22:06;35.36;34.41;36.41;;
67318;Laerm;57664;51.436;5.980;2023-04-28T00:22:18;35.33;34.46;36.62;;
67318;Laerm;57664;51.436;5.980;2023-04-28T00:22:29;35.37;34.50;36.18;;
67318;Laerm;57664;51.436;5.980;2023-04-28T00:22:40;35.36;34.59;36.21;;
67318;Laerm;57664;51.436;5.980;2023-04-28T00:22:50;35.44;34.52;42.83;;
67318;Laerm;57664;51.436;5.980;2023-04-28T00:23:00;35.36;34.54;36.26;;
67318;Laerm;57664;51.436;5.980;2023-04-28T00:23:11;35.35;34.42;36.30;;
67318;Laerm;57664;51.436;5.980;2023-04-28T00:23:21;35.37;34.58;36.11;;
67318;Laerm;57664;51.436;5.980;2023-04-28T00:23:32;35.36;34.46;36.32;;
67318;Laerm;57664;51.436;5.980;2023-04-28T00:23:42;35.37;34.57;36.39;;
67318;Laerm;57664;51.436;5.980;2023-04-28T00:23:52;35.40;34.54;36.40;;
67318;Laerm;57664;51.436;5.980;2023-04-28T00:24:03;35.39;34.45;36.49;;
67318;Laerm;57664;51.436;5.980;2023-04-28T00:24:13;35.39;34.33;36.44;;
67318;Laerm;57664;51.436;5.980;2023-04-28T00:24:23;35.43;34.52;36.29;;
67318;Laerm;57664;51.436;5.980;2023-04-28T00:24:33;35.39;34.55;36.15;;
67318;Laerm;57664;51.436;5.980;2023-04-28T00:24:50;35.40;34.53;36.29;;
67318;Laerm;57664;51.436;5.980;2023-04-28T00:25:00;35.42;34.43;36.33;;
67318;Laerm;57664;51.436;5.980;2023-04-28T00:25:11;35.43;34.22;36.32;;
67318;Laerm;57664;51.436;5.980;2023-04-28T00:25:21;35.42;34.42;36.38;;
67318;Laerm;57664;51.436;5.980;2023-04-28T00:25:31;35.40;34.62;36.28;;
67318;Laerm;57664;51.436;5.980;2023-04-28T00:25:42;35.44;34.42;36.29;;
67318;Laerm;57664;51.436;5.980;2023-04-28T00:25:54;35.46;34.47;36.36;;
67318;Laerm;57664;51.436;5.980;2023-04-28T00:26:04;35.45;34.44;36.33;;
67318;Laerm;57664;51.436;5.980;2023-04-28T00:26:18;35.44;34.34;36.48;;
67318;Laerm;57664;51.436;5.980;2023-04-28T00:26:28;36.77;34.31;55.65;;
67318;Laerm;57664;51.436;5.980;2023-04-28T00:26:38;35.49;34.54;36.40;;
67318;Laerm;57664;51.436;5.980;2023-04-28T00:26:48;35.52;34.66;36.39;;
67318;Laerm;57664;51.436;5.980;2023-04-28T00:26:59;35.52;34.67;36.31;;
67318;Laerm;57664;51.436;5.980;2023-04-28T00:27:10;35.47;34.57;36.31;;
67318;Laerm;57664;51.436;5.980;2023-04-28T00:27:20;35.50;34.64;36.33;;
67318;Laerm;57664;51.436;5.980;2023-04-28T00:27:34;35.50;34.44;36.46;;
67318;Laerm;57664;51.436;5.980;2023-04-28T00:27:44;35.51;34.25;36.27;;
67318;Laerm;57664;51.436;5.980;2023-04-28T00:27:54;35.50;34.25;36.47;;
67318;Laerm;57664;51.436;5.980;2023-04-28T00:28:05;35.53;34.63;36.87;;
67318;Laerm;57664;51.436;5.980;2023-04-28T00:28:15;35.51;34.39;36.24;;
67318;Laerm;57664;51.436;5.980;2023-04-28T00:28:25;35.52;34.64;36.30;;
67318;Laerm;57664;51.436;5.980;2023-04-28T00:28:36;35.53;34.58;36.29;;
67318;Laerm;57664;51.436;5.980;2023-04-28T00:28:46;35.53;34.58;36.80;;
67318;Laerm;57664;51.436;5.980;2023-04-28T00:28:56;35.51;34.63;36.26;;
67318;Laerm;57664;51.436;5.980;2023-04-28T00:29:10;35.51;34.61;36.40;;
67318;Laerm;57664;51.436;5.980;2023-04-28T00:29:20;35.51;34.61;36.57;;
67318;Laerm;57664;51.436;5.980;2023-04-28T00:29:31;35.64;34.56;37.16;;
67318;Laerm;57664;51.436;5.980;2023-04-28T00:29:41;35.58;34.79;37.08;;
67318;Laerm;57664;51.436;5.980;2023-04-28T00:29:53;35.48;34.71;36.49;;
67318;Laerm;57664;51.436;5.980;2023-04-28T00:30:03;35.49;34.57;36.57;;
67318;Laerm;57664;51.436;5.980;2023-04-28T00:30:14;35.51;34.56;36.31;;
67318;Laerm;57664;51.436;5.980;2023-04-28T00:30:24;35.50;34.56;36.26;;
67318;Laerm;57664;51.436;5.980;2023-04-28T00:30:34;35.47;34.68;36.45;;
67318;Laerm;57664;51.436;5.980;2023-04-28T00:30:45;35.46;34.56;36.32;;
67318;Laerm;57664;51.436;5.980;2023-04-28T00:30:56;35.50;34.44;36.40;;
67318;Laerm;57664;51.436;5.980;2023-04-28T00:31:10;35.49;34.56;36.42;;
67318;Laerm;57664;51.436;5.980;2023-04-28T00:31:26;35.49;34.61;36.49;;
67318;Laerm;57664;51.436;5.980;2023-04-28T00:31:36;35.52;34.62;36.40;;
67318;Laerm;57664;51.436;5.980;2023-04-28T00:31:46;35.47;34.51;36.18;;
67318;Laerm;57664;51.436;5.980;2023-04-28T00:31:57;35.45;34.52;36.48;;
67318;Laerm;57664;51.436;5.980;2023-04-28T00:32:07;35.44;34.65;36.60;;
67318;Laerm;57664;51.436;5.980;2023-04-28T00:32:18;35.43;34.55;36.40;;
67318;Laerm;57664;51.436;5.980;2023-04-28T00:32:32;35.46;34.47;36.26;;
67318;Laerm;57664;51.436;5.980;2023-04-28T00:32:43;35.50;34.52;36.40;;
67318;Laerm;57664;51.436;5.980;2023-04-28T00:32:53;35.45;34.40;36.37;;
67318;Laerm;57664;51.436;5.980;2023-04-28T00:33:03;35.51;34.74;36.37;;
67318;Laerm;57664;51.436;5.980;2023-04-28T00:33:14;35.51;34.68;36.27;;
67318;Laerm;57664;51.436;5.980;2023-04-28T00:33:24;35.49;34.64;36.44;;
67318;Laerm;57664;51.436;5.980;2023-04-28T00:33:35;35.45;34.40;36.39;;
67318;Laerm;57664;51.436;5.980;2023-04-28T00:33:45;35.49;34.60;36.47;;
67318;Laerm;57664;51.436;5.980;2023-04-28T00:33:55;35.47;34.15;36.46;;
67318;Laerm;57664;51.436;5.980;2023-04-28T00:34:05;35.48;34.48;36.34;;
67318;Laerm;57664;51.436;5.980;2023-04-28T00:34:16;35.47;34.43;36.27;;
67318;Laerm;57664;51.436;5.980;2023-04-28T00:34:26;35.47;34.52;36.39;;
67318;Laerm;57664;51.436;5.980;2023-04-28T00:34:37;35.51;34.60;36.39;;
67318;Laerm;57664;51.436;5.980;2023-04-28T00:34:47;35.49;34.50;36.48;;
67318;Laerm;57664;51.436;5.980;2023-04-28T00:34:57;35.50;34.71;36.55;;
67318;Laerm;57664;51.436;5.980;2023-04-28T00:35:07;35.52;34.66;36.40;;
67318;Laerm;57664;51.436;5.980;2023-04-28T00:35:19;35.50;34.53;36.36;;
67318;Laerm;57664;51.436;5.980;2023-04-28T00:35:32;35.50;34.39;36.42;;
67318;Laerm;57664;51.436;5.980;2023-04-28T00:35:42;35.47;34.85;36.52;;
67318;Laerm;57664;51.436;5.980;2023-04-28T00:35:59;35.49;34.63;36.66;;
67318;Laerm;57664;51.436;5.980;2023-04-28T00:36:10;35.53;34.62;36.28;;
67318;Laerm;57664;51.436;5.980;2023-04-28T00:36:20;35.54;34.60;36.27;;
67318;Laerm;57664;51.436;5.980;2023-04-28T00:36:30;35.51;34.35;36.60;;
67318;Laerm;57664;51.436;5.980;2023-04-28T00:36:41;35.52;34.66;36.48;;
67318;Laerm;57664;51.436;5.980;2023-04-28T00:36:52;35.48;34.64;36.35;;
67318;Laerm;57664;51.436;5.980;2023-04-28T00:37:05;35.47;34.48;36.30;;
67318;Laerm;57664;51.436;5.980;2023-04-28T00:37:15;35.50;34.35;36.28;;
67318;Laerm;57664;51.436;5.980;2023-04-28T00:37:25;35.46;34.69;36.40;;
67318;Laerm;57664;51.436;5.980;2023-04-28T00:37:37;35.52;34.45;36.45;;
67318;Laerm;57664;51.436;5.980;2023-04-28T00:37:47;35.53;34.64;36.73;;
67318;Laerm;57664;51.436;5.980;2023-04-28T00:37:58;35.52;34.58;36.36;;
67318;Laerm;57664;51.436;5.980;2023-04-28T00:38:08;35.47;34.46;36.52;;
67318;Laerm;57664;51.436;5.980;2023-04-28T00:38:18;35.52;34.57;36.33;;
67318;Laerm;57664;51.436;5.980;2023-04-28T00:38:32;35.51;34.57;36.59;;
67318;Laerm;57664;51.436;5.980;2023-04-28T00:38:42;35.51;34.75;36.47;;
67318;Laerm;57664;51.436;5.980;2023-04-28T00:38:52;35.51;34.52;36.36;;
67318;Laerm;57664;51.436;5.980;2023-04-28T00:39:02;35.56;34.06;36.39;;
67318;Laerm;57664;51.436;5.980;2023-04-28T00:39:13;35.52;34.71;36.48;;
67318;Laerm;57664;51.436;5.980;2023-04-28T00:39:25;35.51;34.74;36.39;;
67318;Laerm;57664;51.436;5.980;2023-04-28T00:39:36;35.62;34.71;37.27;;
67318;Laerm;57664;51.436;5.980;2023-04-28T00:39:47;35.56;34.50;36.51;;
67318;Laerm;57664;51.436;5.980;2023-04-28T00:39:57;35.48;34.57;36.54;;
67318;Laerm;57664;51.436;5.980;2023-04-28T00:40:07;35.46;34.41;36.33;;
67318;Laerm;57664;51.436;5.980;2023-04-28T00:40:18;35.52;34.69;36.46;;
67318;Laerm;57664;51.436;5.980;2023-04-28T00:40:32;35.49;34.29;36.42;;
67318;Laerm;57664;51.436;5.980;2023-04-28T00:40:42;35.50;34.66;36.34;;
67318;Laerm;57664;51.436;5.980;2023-04-28T00:40:53;35.50;34.62;36.35;;
67318;Laerm;57664;51.436;5.980;2023-04-28T00:41:03;35.51;34.61;36.31;;
67318;Laerm;57664;51.436;5.980;2023-04-28T00:41:13;35.51;34.70;36.41;;
67318;Laerm;57664;51.436;5.980;2023-04-28T00:41:24;35.51;34.39;36.36;;
67318;Laerm;57664;51.436;5.980;2023-04-28T00:41:34;35.53;34.79;36.46;;
67318;Laerm;57664;51.436;5.980;2023-04-28T00:41:45;35.52;34.43;36.27;;
67318;Laerm;57664;51.436;5.980;2023-04-28T00:41:56;35.54;34.59;36.32;;
67318;Laerm;57664;51.436;5.980;2023-04-28T00:42:06;35.53;34.71;36.76;;
67318;Laerm;57664;51.436;5.980;2023-04-28T00:42:17;35.53;34.65;36.49;;
67318;Laerm;57664;51.436;5.980;2023-04-28T00:42:27;35.52;34.78;36.40;;
67318;Laerm;57664;51.436;5.980;2023-04-28T00:42:37;35.51;34.64;36.84;;
67318;Laerm;57664;51.436;5.980;2023-04-28T00:42:48;35.53;34.67;36.45;;
67318;Laerm;57664;51.436;5.980;2023-04-28T00:42:58;35.52;34.48;36.22;;
67318;Laerm;57664;51.436;5.980;2023-04-28T00:43:08;35.48;34.25;36.28;;
67318;Laerm;57664;51.436;5.980;2023-04-28T00:43:20;35.52;34.61;36.35;;
67318;Laerm;57664;51.436;5.980;2023-04-28T00:43:30;35.53;34.52;36.42;;
67318;Laerm;57664;51.436;5.980;2023-04-28T00:43:47;35.52;34.51;36.25;;
67318;Laerm;57664;51.436;5.980;2023-04-28T00:43:57;35.53;34.51;36.53;;
67318;Laerm;57664;51.436;5.980;2023-04-28T00:44:08;35.52;34.71;36.26;;
67318;Laerm;57664;51.436;5.980;2023-04-28T00:44:20;35.57;34.69;36.52;;
67318;Laerm;57664;51.436;5.980;2023-04-28T00:44:30;35.55;34.66;36.37;;
67318;Laerm;57664;51.436;5.980;2023-04-28T00:44:41;35.81;34.68;48.00;;
67318;Laerm;57664;51.436;5.980;2023-04-28T00:44:51;35.57;34.43;36.48;;
67318;Laerm;57664;51.436;5.980;2023-04-28T00:45:02;35.58;34.69;36.46;;
67318;Laerm;57664;51.436;5.980;2023-04-28T00:45:16;37.26;34.53;58.40;;
67318;Laerm;57664;51.436;5.980;2023-04-28T00:45:26;35.72;34.71;36.49;;
67318;Laerm;57664;51.436;5.980;2023-04-28T00:45:36;35.72;34.60;36.57;;
67318;Laerm;57664;51.436;5.980;2023-04-28T00:45:47;35.75;34.61;36.63;;
67318;Laerm;57664;51.436;5.980;2023-04-28T00:45:59;35.75;34.60;36.66;;
67318;Laerm;57664;51.436;5.980;2023-04-28T00:46:12;35.79;34.87;36.76;;
67318;Laerm;57664;51.436;5.980;2023-04-28T00:46:29;36.26;34.87;53.00;;
67318;Laerm;57664;51.436;5.980;2023-04-28T00:46:39;35.85;34.98;36.81;;
67318;Laerm;57664;51.436;5.980;2023-04-28T00:46:50;35.84;34.80;36.72;;
67318;Laerm;57664;51.436;5.980;2023-04-28T00:47:00;35.86;34.93;37.09;;
67318;Laerm;57664;51.436;5.980;2023-04-28T00:47:11;35.83;34.70;36.85;;
67318;Laerm;57664;51.436;5.980;2023-04-28T00:47:25;35.91;34.92;36.88;;
67318;Laerm;57664;51.436;5.980;2023-04-28T00:47:35;35.86;35.05;36.92;;
67318;Laerm;57664;51.436;5.980;2023-04-28T00:47:46;35.89;35.05;36.84;;
67318;Laerm;57664;51.436;5.980;2023-04-28T00:47:56;35.86;34.91;36.74;;
67318;Laerm;57664;51.436;5.980;2023-04-28T00:48:10;35.89;34.96;37.26;;
67318;Laerm;57664;51.436;5.980;2023-04-28T00:48:20;35.89;35.05;36.80;;
67318;Laerm;57664;51.436;5.980;2023-04-28T00:48:31;35.88;34.89;36.83;;
67318;Laerm;57664;51.436;5.980;2023-04-28T00:48:41;35.88;34.89;36.87;;
67318;Laerm;57664;51.436;5.980;2023-04-28T00:48:52;35.84;34.95;36.69;;
67318;Laerm;57664;51.436;5.980;2023-04-28T00:49:02;35.83;34.86;36.67;;
67318;Laerm;57664;51.436;5.980;2023-04-28T00:49:14;35.85;34.95;37.31;;
67318;Laerm;57664;51.436;5.980;2023-04-28T00:49:24;35.83;34.86;36.73;;
67318;Laerm;57664;51.436;5.980;2023-04-28T00:49:35;35.84;34.86;37.26;;
67318;Laerm;57664;51.436;5.980;2023-04-28T00:49:47;35.83;34.94;36.90;;
67318;Laerm;57664;51.436;5.980;2023-04-28T00:49:59;35.82;34.94;36.71;;
67318;Laerm;57664;51.436;5.980;2023-04-28T00:50:10;35.81;34.82;36.84;;
67318;Laerm;57664;51.436;5.980;2023-04-28T00:50:21;35.85;34.97;36.59;;
67318;Laerm;57664;51.436;5.980;2023-04-28T00:50:31;35.80;34.76;36.56;;
67318;Laerm;57664;51.436;5.980;2023-04-28T00:50:45;35.84;34.97;36.91;;
67318;Laerm;57664;51.436;5.980;2023-04-28T00:50:56;35.82;34.73;37.13;;
67318;Laerm;57664;51.436;5.980;2023-04-28T00:51:06;35.81;34.87;36.78;;
67318;Laerm;57664;51.436;5.980;2023-04-28T00:51:17;35.83;34.84;36.79;;
67318;Laerm;57664;51.436;5.980;2023-04-28T00:51:29;35.82;35.00;36.78;;
67318;Laerm;57664;51.436;5.980;2023-04-28T00:51:46;35.81;34.89;36.80;;
67318;Laerm;57664;51.436;5.980;2023-04-28T00:51:59;35.84;34.78;36.67;;
67318;Laerm;57664;51.436;5.980;2023-04-28T00:52:14;35.81;34.90;36.74;;
67318;Laerm;57664;51.436;5.980;2023-04-28T00:52:24;35.80;34.82;36.75;;
67318;Laerm;57664;51.436;5.980;2023-04-28T00:52:35;35.79;34.96;36.78;;
67318;Laerm;57664;51.436;5.980;2023-04-28T00:52:45;35.76;34.78;36.62;;
67318;Laerm;57664;51.436;5.980;2023-04-28T00:52:56;35.82;35.00;36.68;;
67318;Laerm;57664;51.436;5.980;2023-04-28T00:53:07;35.75;35.02;36.56;;
67318;Laerm;57664;51.436;5.980;2023-04-28T00:53:19;35.76;34.60;36.48;;
67318;Laerm;57664;51.436;5.980;2023-04-28T00:53:30;35.75;34.79;36.71;;
67318;Laerm;57664;51.436;5.980;2023-04-28T00:53:41;35.78;34.82;36.66;;
67318;Laerm;57664;51.436;5.980;2023-04-28T00:53:58;35.76;34.96;37.18;;
67318;Laerm;57664;51.436;5.980;2023-04-28T00:54:12;35.79;34.79;36.54;;
67318;Laerm;57664;51.436;5.980;2023-04-28T00:54:22;35.78;34.72;36.58;;
67318;Laerm;57664;51.436;5.980;2023-04-28T00:54:33;35.78;34.60;36.90;;
67318;Laerm;57664;51.436;5.980;2023-04-28T00:54:43;35.74;34.82;36.62;;
67318;Laerm;57664;51.436;5.980;2023-04-28T00:54:56;35.76;34.99;36.65;;
67318;Laerm;57664;51.436;5.980;2023-04-28T00:55:07;35.77;34.92;36.78;;
67318;Laerm;57664;51.436;5.980;2023-04-28T00:55:18;35.76;34.94;36.54;;
67318;Laerm;57664;51.436;5.980;2023-04-28T00:55:30;35.72;34.86;36.79;;
67318;Laerm;57664;51.436;5.980;2023-04-28T00:55:41;35.75;34.94;36.53;;
67318;Laerm;57664;51.436;5.980;2023-04-28T00:55:51;35.85;34.62;36.65;;
67318;Laerm;57664;51.436;5.980;2023-04-28T00:56:04;35.82;34.85;36.84;;
67318;Laerm;57664;51.436;5.980;2023-04-28T00:56:15;35.70;34.80;36.68;;
67318;Laerm;57664;51.436;5.980;2023-04-28T00:56:25;35.68;34.72;36.45;;
67318;Laerm;57664;51.436;5.980;2023-04-28T00:56:36;35.72;34.77;36.88;;
67318;Laerm;57664;51.436;5.980;2023-04-28T00:56:47;35.72;34.53;36.65;;
67318;Laerm;57664;51.436;5.980;2023-04-28T00:56:57;35.73;34.68;36.84;;
67318;Laerm;57664;51.436;5.980;2023-04-28T00:57:09;35.76;34.81;36.73;;
67318;Laerm;57664;51.436;5.980;2023-04-28T00:57:19;35.75;34.98;36.78;;
67318;Laerm;57664;51.436;5.980;2023-04-28T00:57:30;35.70;34.54;36.76;;
67318;Laerm;57664;51.436;5.980;2023-04-28T00:57:41;35.76;34.88;36.71;;
67318;Laerm;57664;51.436;5.980;2023-04-28T00:57:51;35.78;34.78;36.97;;
67318;Laerm;57664;51.436;5.980;2023-04-28T00:58:05;35.75;34.78;36.61;;
67318;Laerm;57664;51.436;5.980;2023-04-28T00:58:15;35.77;34.79;36.89;;
67318;Laerm;57664;51.436;5.980;2023-04-28T00:58:26;35.80;34.79;36.83;;
67318;Laerm;57664;51.436;5.980;2023-04-28T00:58:38;35.76;34.92;36.64;;
67318;Laerm;57664;51.436;5.980;2023-04-28T00:58:49;35.75;34.85;36.45;;
67318;Laerm;57664;51.436;5.980;2023-04-28T00:58:59;35.79;34.73;36.51;;
67318;Laerm;57664;51.436;5.980;2023-04-28T00:59:09;35.82;34.93;36.80;;
67318;Laerm;57664;51.436;5.980;2023-04-28T00:59:20;35.82;34.62;36.70;;
67318;Laerm;57664;51.436;5.980;2023-04-28T00:59:30;35.84;34.72;37.03;;
67318;Laerm;57664;51.436;5.980;2023-04-28T00:59:40;35.83;34.95;36.71;;
67318;Laerm;57664;51.436;5.980;2023-04-28T00:59:51;35.79;34.75;36.88;;
67318;Laerm;57664;51.436;5.980;2023-04-28T01:00:02;35.75;34.83;36.69;;
67318;Laerm;57664;51.436;5.980;2023-04-28T01:00:12;35.80;34.97;36.64;;
67318;Laerm;57664;51.436;5.980;2023-04-28T01:00:24;35.80;34.92;36.61;;
67318;Laerm;57664;51.436;5.980;2023-04-28T01:00:34;35.78;34.88;36.71;;
67318;Laerm;57664;51.436;5.980;2023-04-28T01:00:44;35.78;34.91;36.66;;
67318;Laerm;57664;51.436;5.980;2023-04-28T01:01:05;35.79;34.51;36.63;;
67318;Laerm;57664;51.436;5.980;2023-04-28T01:01:19;35.80;34.48;36.81;;
67318;Laerm;57664;51.436;5.980;2023-04-28T01:01:29;35.75;34.79;36.75;;
67318;Laerm;57664;51.436;5.980;2023-04-28T01:01:47;35.82;34.69;36.85;;
67318;Laerm;57664;51.436;5.980;2023-04-28T01:02:01;35.77;34.66;36.67;;